Thompson Municipal Airport

Airport
ICAO code: 
CYTH
Summary
ICAO Region: 
NAM
Territory: 
Location: 
Thompson, Manitoba,
Coordinates: 
Aerial View: 
55° 48' 8.489" N, 97° 51' 22.442" W
Airport BS: 
Non Avian Wildlife Hazards to Aircraft
Airport CFIT: 
Altimeter Temperature Error Correction
Airport GND: 
Aircraft Ground De/Anti Icing
Metar
Observation
CYTH 271224Z 24003KT 15SM -SN SCT010 OVC024 M07/M08 A2963 RMK SC4SC4 SLP055
Station
Thompson Weather Office, Man
Date/Time
2021-11-27 12:24:00
Wind direction
240°
Wind speed
03 kts
Lowest cloud amount
scattered clouds
Temperature
-7°C
Dew point
-8°C
Humidity
92%
Weather condition
light snow

Description

Regional airport serving Thompson, Manitoba, Canada.

Climatology

Subarctic climate (Köppen climate classification Dfc) - long, usually very cold winters, and short, cool to mild summers.

Runways

Designator Length Width Surface Rops
14/32 762 30 GVL No/No
5/23 1768 46 ASP No/No
Airport map: 
Aerial View: 

Accidents and Serious Incidents at or in the vicinity of CYTH

SKYbrary Partners:

Safety knowledge contributed by: